Dati Storici

Data ora Umidita' aria (%) Temperatura aria (°C) Rad globale (W/m²) Gonioanemometro (°) Tacoanemometro (m/s) Pioggia (mm)
21-03-2013 09:40 60.8 % 10.662 608.906 247.325 3.415 0
21-03-2013 09:30 64.9 % 10.561 583.141 232.409 3.167 0
21-03-2013 09:20 66.3 % 10.246 557.889 224.848 2.618 0
21-03-2013 09:10 67.6 % 9.839 531.133 252.84 2.236 0
21-03-2013 09:00 68 % 9.512 501.691 217.149 4.515 0
21-03-2013 08:50 69.9 % 9.023 471.004 226.474 3.109 0
21-03-2013 08:40 70.6 % 9.122 439.219 249.677 2.798 0
21-03-2013 08:30 72.3 % 8.931 412.769 218.32 2.232 0
21-03-2013 08:20 74.9 % 8.43 379.668 216.468 2.553 0
21-03-2013 08:10 77.6 % 8.004 350.513 245.849 2.82 0
21-03-2013 08:00 84 % 7.518 87.542 212.475 1.095 0
21-03-2013 07:50 84.7 % 7.241 55.112 226.528 2.259 0
21-03-2013 07:40 85.9 % 6.969 53.147 289.524 1.487 0
21-03-2013 07:30 85.6 % 6.77 111.321 270.635 1.431 0
21-03-2013 07:20 86.4 % 6.514 77.758 273.627 1.128 0
21-03-2013 07:10 86.6 % 6.439 48.779 273.281 1.518 0
21-03-2013 07:00 85.9 % 6.491 38.291 287.425 2.18 0
21-03-2013 06:50 85.1 % 6.625 26.106 304.164 1.822 0
21-03-2013 06:40 85 % 6.678 16.14 237.674 1.911 0
21-03-2013 06:30 85.5 % 6.639 9.805 258.196 1.688 0

I dati sono presentati in modo automatico a scopo informativo. In seguito a verifica i dati possono subire modifiche o essere invalidati e non riportati negli archivi definitivi.